createdAt,value
2023-02-22T00:00:54.570Z,62.24
2023-02-22T00:03:25.369Z,62.57
2023-02-22T00:05:55.088Z,62.70
2023-02-22T00:08:24.877Z,63.40
2023-02-22T00:11:10.731Z,63.82
2023-02-22T00:13:38.704Z,63.13
2023-02-22T00:16:06.566Z,63.01
2023-02-22T00:18:33.657Z,63.63
2023-02-22T00:21:01.572Z,63.77
2023-02-22T00:23:30.579Z,63.72
2023-02-22T00:25:58.892Z,62.23
2023-02-22T00:28:54.164Z,63.05
2023-02-22T00:31:22.161Z,63.23
2023-02-22T00:33:49.169Z,62.78
2023-02-22T00:36:16.056Z,63.02
2023-02-22T00:38:46.230Z,63.64
2023-02-22T00:41:13.294Z,63.24
2023-02-22T00:43:41.042Z,63.64
2023-02-22T00:46:07.929Z,63.07
2023-02-22T00:48:34.890Z,63.70
2023-02-22T00:51:01.885Z,63.87
2023-02-22T00:53:28.790Z,64.17
2023-02-22T00:55:55.843Z,64.97
2023-02-22T00:58:22.986Z,65.01
2023-02-22T01:00:50.467Z,64.99
2023-02-22T01:03:19.731Z,65.56
2023-02-22T01:05:47.926Z,65.85
2023-02-22T01:08:16.735Z,65.68
2023-02-22T01:10:45.191Z,65.06
2023-02-22T01:13:13.048Z,65.42
2023-02-22T01:15:43.242Z,65.44
2023-02-22T01:18:12.855Z,65.63
2023-02-22T01:20:39.937Z,65.84
2023-02-22T01:23:08.308Z,66.73
2023-02-22T01:25:36.231Z,67.07
2023-02-22T01:28:06.343Z,67.06
2023-02-22T01:30:35.568Z,67.27
2023-02-22T01:33:04.767Z,67.50
2023-02-22T01:35:35.314Z,68.08
2023-02-22T01:38:02.941Z,67.47
2023-02-22T01:40:35.880Z,66.97
2023-02-22T01:43:06.866Z,67.39
2023-02-22T01:45:33.586Z,68.15
2023-02-22T01:48:08.968Z,67.83
2023-02-22T01:50:55.946Z,66.93
2023-02-22T01:53:29.397Z,67.33
2023-02-22T01:55:57.841Z,66.90
2023-02-22T01:58:28.522Z,67.37
2023-02-22T02:03:40.659Z,67.72
2023-02-22T02:06:13.075Z,67.84
2023-02-22T02:08:59.870Z,68.09
2023-02-22T02:11:28.445Z,67.42
2023-02-22T02:13:57.201Z,67.42
2023-02-22T02:16:27.919Z,66.59
2023-02-22T02:18:55.453Z,65.86
2023-02-22T02:21:25.301Z,67.21
2023-02-22T02:24:24.732Z,67.28
2023-02-22T02:26:55.582Z,67.66
2023-02-22T02:29:44.029Z,67.34
2023-02-22T02:32:28.392Z,68.51
2023-02-22T02:35:18.754Z,68.50
2023-02-22T02:38:10.144Z,68.11
2023-02-22T02:40:50.115Z,68.22
2023-02-22T02:43:26.642Z,68.05
2023-02-22T02:46:15.720Z,68.49
2023-02-22T02:48:49.753Z,69.24
2023-02-22T02:51:18.490Z,68.89
2023-02-22T02:53:49.044Z,68.71
2023-02-22T02:56:15.994Z,69.53
2023-02-22T02:58:49.829Z,69.66
2023-02-22T03:01:26.165Z,69.50
2023-02-22T03:04:11.386Z,69.96
2023-02-22T03:06:46.974Z,70.12
2023-02-22T03:09:34.975Z,69.96
2023-02-22T03:12:27.874Z,69.92
2023-02-22T03:15:26.530Z,69.47
2023-02-22T03:18:23.136Z,70.34
2023-02-22T03:21:31.638Z,70.30
2023-02-22T03:24:10.240Z,70.73
2023-02-22T03:26:42.227Z,71.07
2023-02-22T03:29:11.949Z,71.08
2023-02-22T03:31:43.158Z,70.90
2023-02-22T03:34:21.998Z,70.57
2023-02-22T03:36:56.179Z,70.61
2023-02-22T03:39:31.182Z,70.63
2023-02-22T03:42:10.137Z,70.21
2023-02-22T03:44:40.672Z,69.58
2023-02-22T03:47:12.197Z,69.58
2023-02-22T03:49:52.603Z,69.98
2023-02-22T03:52:20.565Z,69.58
2023-02-22T03:54:48.031Z,69.52
2023-02-22T03:57:26.048Z,70.40
2023-02-22T03:59:53.614Z,70.41
2023-02-22T04:02:20.798Z,69.65
2023-02-22T04:04:48.570Z,69.16
2023-02-22T04:07:16.001Z,70.29
2023-02-22T04:09:44.108Z,69.99
2023-02-22T04:12:11.087Z,70.38
2023-02-22T04:14:37.933Z,70.97
2023-02-22T04:17:04.967Z,72.02
2023-02-22T04:19:31.945Z,71.69
2023-02-22T04:21:58.856Z,71.67
2023-02-22T04:24:25.740Z,72.24
2023-02-22T04:26:53.260Z,71.60
2023-02-22T04:29:20.238Z,71.92
2023-02-22T04:31:47.562Z,71.72
2023-02-22T04:34:14.603Z,70.86
2023-02-22T04:36:44.527Z,70.96
2023-02-22T04:39:11.918Z,70.96
2023-02-22T04:41:39.054Z,71.86
2023-02-22T04:44:06.023Z,71.53
2023-02-22T04:46:33.056Z,70.71
2023-02-22T04:49:00.088Z,70.82
2023-02-22T04:51:27.113Z,72.20
2023-02-22T04:53:54.098Z,71.63
2023-02-22T04:56:21.349Z,72.82
2023-02-22T04:58:48.467Z,73.00
2023-02-22T05:01:16.999Z,72.66
2023-02-22T05:03:44.518Z,72.46
2023-02-22T05:06:12.818Z,73.01
2023-02-22T05:08:39.725Z,72.09
2023-02-22T05:11:07.038Z,74.21
2023-02-22T05:13:36.397Z,73.49
2023-02-22T05:16:04.370Z,73.34
2023-02-22T05:18:31.313Z,73.58
2023-02-22T05:20:58.535Z,73.21
2023-02-22T05:23:25.363Z,73.21
2023-02-22T05:25:52.246Z,73.85
2023-02-22T05:28:19.311Z,73.50
2023-02-22T05:30:46.385Z,73.43
2023-02-22T05:33:13.706Z,72.97
2023-02-22T05:35:40.683Z,72.58
2023-02-22T05:38:26.190Z,73.88
2023-02-22T05:40:53.051Z,72.79
2023-02-22T05:43:19.968Z,72.03
2023-02-22T05:45:46.942Z,69.47
2023-02-22T05:48:13.920Z,68.12
2023-02-22T05:50:40.835Z,66.14
2023-02-22T05:53:07.838Z,67.59
2023-02-22T05:55:35.394Z,68.74
2023-02-22T05:58:04.870Z,67.64
2023-02-22T06:00:32.212Z,65.05
2023-02-22T06:03:02.024Z,62.00
2023-02-22T06:05:30.082Z,60.82
2023-02-22T06:07:59.168Z,57.60
2023-02-22T06:10:27.135Z,55.59
2023-02-22T06:12:55.290Z,55.50
2023-02-22T06:15:24.724Z,53.27
2023-02-22T06:17:52.106Z,53.27
2023-02-22T06:20:23.483Z,53.47
2023-02-22T06:22:52.490Z,53.15
2023-02-22T06:25:24.184Z,52.38
2023-02-22T06:27:51.563Z,50.32
2023-02-22T06:30:21.395Z,47.81
2023-02-22T06:32:48.392Z,48.66
2023-02-22T06:35:16.052Z,47.88
2023-02-22T06:37:44.635Z,46.77
2023-02-22T06:40:12.636Z,45.64
2023-02-22T06:42:42.098Z,45.14
2023-02-22T06:45:10.005Z,44.64
2023-02-22T06:47:42.653Z,44.67
2023-02-22T06:50:24.875Z,43.63
2023-02-22T06:52:52.497Z,42.43
2023-02-22T06:55:25.174Z,42.13
2023-02-22T06:58:10.817Z,41.76
2023-02-22T07:00:41.412Z,40.63
2023-02-22T07:03:08.408Z,38.89
2023-02-22T07:05:35.766Z,38.20
2023-02-22T07:08:08.125Z,38.97
2023-02-22T07:10:36.880Z,38.66
2023-02-22T07:13:05.133Z,38.20
2023-02-22T07:15:34.825Z,38.37
2023-02-22T07:18:02.266Z,37.49
2023-02-22T07:20:32.040Z,37.23
2023-02-22T07:22:59.359Z,37.09
2023-02-22T07:25:26.695Z,36.38
2023-02-22T07:27:54.843Z,36.50
2023-02-22T07:30:25.744Z,36.25
2023-02-22T07:32:55.199Z,35.95
2023-02-22T07:35:31.106Z,36.15
2023-02-22T07:37:59.360Z,37.00
2023-02-22T07:40:34.819Z,36.99
2023-02-22T07:43:26.446Z,37.12
2023-02-22T07:45:56.198Z,35.92
2023-02-22T07:48:26.903Z,36.50
2023-02-22T07:50:54.036Z,36.62
2023-02-22T07:53:24.100Z,36.50
2023-02-22T07:55:52.106Z,36.14
2023-02-22T07:58:24.947Z,35.99
2023-02-22T08:00:53.041Z,36.39
2023-02-22T08:03:23.506Z,35.98
2023-02-22T08:05:53.468Z,35.91
2023-02-22T08:08:20.540Z,35.65
2023-02-22T08:10:48.437Z,35.85
2023-02-22T08:13:16.651Z,34.94
2023-02-22T08:15:50.084Z,34.52
2023-02-22T08:18:19.417Z,34.28
2023-02-22T08:20:52.238Z,34.36
2023-02-22T08:23:20.620Z,34.30
2023-02-22T08:25:51.434Z,34.16
2023-02-22T08:28:22.733Z,34.19
2023-02-22T08:30:51.086Z,34.88
2023-02-22T08:33:20.142Z,35.99
2023-02-22T08:35:49.985Z,34.99
2023-02-22T08:38:23.312Z,33.25
2023-02-22T08:40:52.252Z,34.50
2023-02-22T08:43:20.910Z,34.00
2023-02-22T08:45:49.939Z,34.24
2023-02-22T08:48:17.801Z,33.25
2023-02-22T08:50:44.927Z,33.54
2023-02-22T08:53:13.841Z,34.18
2023-02-22T08:55:42.240Z,33.54
2023-02-22T08:58:10.071Z,33.70
2023-02-22T09:00:39.050Z,34.42
2023-02-22T09:03:09.291Z,33.47
2023-02-22T09:05:36.825Z,33.30
2023-02-22T09:08:04.301Z,32.87
2023-02-22T09:10:35.956Z,33.43
2023-02-22T09:13:04.220Z,33.86
2023-02-22T09:15:36.413Z,33.43
2023-02-22T09:18:04.512Z,33.91
2023-02-22T09:20:31.680Z,33.81
2023-02-22T09:22:59.965Z,34.11
2023-02-22T09:25:27.433Z,33.98
2023-02-22T09:27:55.739Z,33.62
2023-02-22T09:30:32.557Z,34.09
2023-02-22T09:33:10.626Z,33.50
2023-02-22T09:35:46.733Z,33.02
2023-02-22T09:38:16.456Z,32.41
2023-02-22T09:40:50.471Z,33.59
2023-02-22T09:43:35.962Z,33.65
2023-02-22T09:46:28.157Z,33.41
2023-02-22T09:49:02.152Z,32.71
2023-02-22T09:52:06.082Z,31.55
2023-02-22T09:54:52.009Z,32.05
2023-02-22T09:57:27.210Z,32.78
2023-02-22T10:00:13.270Z,33.26
2023-02-22T10:02:52.356Z,32.75
2023-02-22T10:05:31.674Z,32.33
2023-02-22T10:08:06.361Z,32.35
2023-02-22T10:10:39.429Z,32.30
2023-02-22T10:13:14.256Z,33.40
2023-02-22T10:16:05.637Z,32.96
2023-02-22T10:19:15.369Z,32.67
2023-02-22T10:21:49.060Z,34.48
2023-02-22T10:24:38.767Z,33.47
2023-02-22T10:27:15.387Z,32.71
2023-02-22T10:29:47.992Z,34.45
2023-02-22T10:32:29.877Z,33.30
2023-02-22T10:35:00.975Z,32.91
2023-02-22T10:37:34.406Z,31.91
2023-02-22T10:40:32.312Z,31.41
2023-02-22T10:43:03.276Z,31.33
2023-02-22T10:45:37.352Z,32.01
2023-02-22T10:48:12.330Z,32.13
2023-02-22T10:50:44.503Z,32.84
2023-02-22T10:53:16.828Z,33.23
2023-02-22T10:56:22.725Z,32.67
2023-02-22T10:58:57.749Z,33.31
2023-02-22T11:01:32.200Z,32.85
2023-02-22T11:04:05.644Z,33.24
2023-02-22T11:06:34.828Z,33.71
2023-02-22T11:09:22.731Z,33.17
2023-02-22T11:12:07.085Z,34.42
2023-02-22T11:14:35.079Z,35.90
2023-02-22T11:17:08.275Z,35.47
2023-02-22T11:19:38.561Z,33.76
2023-02-22T11:22:05.311Z,33.41
2023-02-22T11:24:47.445Z,34.03
2023-02-22T11:27:38.417Z,34.10
2023-02-22T11:30:35.192Z,34.09
2023-02-22T11:33:06.403Z,34.38
2023-02-22T11:35:51.009Z,35.10
2023-02-22T11:38:22.887Z,34.25
2023-02-22T11:41:18.982Z,34.32
2023-02-22T11:43:51.488Z,34.32
2023-02-22T11:46:29.438Z,34.12
2023-02-22T11:49:06.646Z,33.26
2023-02-22T11:52:03.516Z,34.33
2023-02-22T11:54:54.980Z,34.46
2023-02-22T11:57:46.857Z,35.69
2023-02-22T12:00:41.727Z,34.79
2023-02-22T12:03:33.010Z,35.44
2023-02-22T12:06:24.873Z,35.13
2023-02-22T12:09:03.816Z,35.18
2023-02-22T12:11:43.637Z,34.94
2023-02-22T12:14:53.699Z,36.07
2023-02-22T12:17:39.033Z,35.32
2023-02-22T12:20:23.226Z,35.96
2023-02-22T12:23:13.538Z,35.82
2023-02-22T12:25:54.824Z,35.84
2023-02-22T12:28:26.054Z,37.73
2023-02-22T12:31:05.236Z,36.33
2023-02-22T12:33:50.600Z,36.09
2023-02-22T12:36:23.070Z,36.05
2023-02-22T12:38:59.286Z,36.99
2023-02-22T12:41:34.534Z,37.28
2023-02-22T12:44:09.600Z,37.39
2023-02-22T12:46:48.102Z,37.31
2023-02-22T12:49:26.667Z,37.06
2023-02-22T12:52:24.905Z,37.29
2023-02-22T12:55:01.395Z,38.22
2023-02-22T12:57:44.633Z,37.95
2023-02-22T13:00:28.883Z,37.99
2023-02-22T13:03:18.035Z,37.91
2023-02-22T13:05:51.582Z,38.25
2023-02-22T13:08:40.032Z,38.64
2023-02-22T13:11:31.966Z,38.86
2023-02-22T13:14:28.912Z,38.90
2023-02-22T13:17:04.838Z,38.51
2023-02-22T13:19:50.775Z,38.69
2023-02-22T13:22:30.196Z,38.22
2023-02-22T13:25:16.712Z,37.89
2023-02-22T13:27:50.586Z,38.57
2023-02-22T13:30:30.025Z,38.30
2023-02-22T13:33:24.649Z,38.33
2023-02-22T13:36:10.441Z,38.54
2023-02-22T13:39:13.244Z,38.86
2023-02-22T13:41:55.547Z,39.75
2023-02-22T13:44:42.484Z,39.06
2023-02-22T13:47:44.739Z,39.28
2023-02-22T13:50:51.824Z,38.91
2023-02-22T13:53:29.217Z,39.37
2023-02-22T13:56:00.845Z,39.84
2023-02-22T13:58:28.142Z,39.34
2023-02-22T14:00:57.765Z,39.40
2023-02-22T14:03:36.349Z,40.02
2023-02-22T14:06:08.731Z,40.72
2023-02-22T14:08:35.548Z,40.40
2023-02-22T14:11:14.808Z,40.61
2023-02-22T14:14:01.631Z,40.08
2023-02-22T14:16:30.484Z,40.33
2023-02-22T14:19:27.106Z,40.91
2023-02-22T14:22:02.696Z,40.98
2023-02-22T14:24:51.736Z,41.48
2023-02-22T14:27:20.117Z,41.09
2023-02-22T14:30:01.273Z,40.81
2023-02-22T14:32:34.246Z,40.11
2023-02-22T14:35:14.298Z,40.40
2023-02-22T14:37:55.052Z,41.27
2023-02-22T14:40:26.328Z,40.75
2023-02-22T14:43:08.118Z,40.66
2023-02-22T14:45:43.624Z,41.26
2023-02-22T14:48:20.644Z,41.70
2023-02-22T14:51:05.859Z,41.94
2023-02-22T14:53:54.756Z,41.77
2023-02-22T14:56:30.363Z,41.49
2023-02-22T14:59:27.307Z,41.40
2023-02-22T15:02:18.341Z,41.58
2023-02-22T15:04:57.235Z,41.40
2023-02-22T15:07:30.410Z,41.11
2023-02-22T15:10:31.305Z,42.04
2023-02-22T15:13:12.190Z,41.73
2023-02-22T15:15:49.090Z,42.15
2023-02-22T15:18:33.642Z,42.16
2023-02-22T15:21:16.578Z,42.46
2023-02-22T15:23:47.321Z,42.39
2023-02-22T15:27:00.174Z,43.36
2023-02-22T15:29:39.192Z,43.81
2023-02-22T15:32:53.330Z,44.43
2023-02-22T15:35:24.236Z,44.76
2023-02-22T15:38:06.508Z,45.79
2023-02-22T15:40:35.084Z,45.55
2023-02-22T15:43:09.242Z,45.82
2023-02-22T15:45:43.185Z,46.31
2023-02-22T15:48:16.123Z,46.82
2023-02-22T15:51:06.921Z,47.22
2023-02-22T15:53:46.131Z,47.69
2023-02-22T15:56:17.492Z,48.06
2023-02-22T15:58:51.863Z,49.11
2023-02-22T16:01:21.597Z,49.70
2023-02-22T16:03:56.946Z,50.06
2023-02-22T16:06:37.539Z,50.42
2023-02-22T16:09:13.873Z,50.65
2023-02-22T16:11:44.371Z,51.18
2023-02-22T16:14:25.581Z,51.07
2023-02-22T16:17:33.766Z,51.98
2023-02-22T16:20:02.072Z,52.31
2023-02-22T16:22:38.646Z,52.73
2023-02-22T16:25:22.884Z,53.49
2023-02-22T16:27:58.423Z,54.13
2023-02-22T16:30:27.595Z,54.12
2023-02-22T16:32:57.112Z,54.76
2023-02-22T16:35:29.462Z,55.63
2023-02-22T16:38:08.509Z,55.45
2023-02-22T16:40:41.380Z,56.27
2023-02-22T16:43:17.488Z,56.43
2023-02-22T16:45:44.609Z,56.33
2023-02-22T16:48:17.767Z,56.93
2023-02-22T16:50:44.933Z,56.99
2023-02-22T16:53:12.312Z,57.16
2023-02-22T16:55:46.643Z,57.48
2023-02-22T16:58:14.929Z,57.70
2023-02-22T17:00:42.450Z,57.72
2023-02-22T17:03:16.341Z,58.36
2023-02-22T17:05:44.353Z,58.08
2023-02-22T17:08:11.500Z,58.16
2023-02-22T17:10:40.628Z,58.69
2023-02-22T17:13:21.797Z,59.05
2023-02-22T17:15:50.049Z,59.51
2023-02-22T17:18:23.148Z,59.76
2023-02-22T17:20:54.615Z,59.32
2023-02-22T17:23:23.313Z,60.00
2023-02-22T17:25:54.050Z,60.46
2023-02-22T17:28:22.053Z,60.40
2023-02-22T17:30:49.229Z,60.09
2023-02-22T17:33:19.891Z,60.13
2023-02-22T17:35:47.236Z,60.53
2023-02-22T17:38:18.614Z,61.12
2023-02-22T17:40:52.193Z,61.31
2023-02-22T17:43:23.078Z,60.90
2023-02-22T17:45:50.159Z,61.31
2023-02-22T17:48:22.905Z,61.64
2023-02-22T17:50:50.969Z,61.78
2023-02-22T17:53:21.874Z,61.91
2023-02-22T17:55:49.781Z,62.68
2023-02-22T17:58:17.681Z,63.00
2023-02-22T18:00:50.804Z,62.98
2023-02-22T18:03:26.029Z,63.39
2023-02-22T18:05:58.627Z,63.50
2023-02-22T18:08:31.079Z,63.41
2023-02-22T18:10:58.221Z,63.78
2023-02-22T18:13:27.886Z,64.23
2023-02-22T18:16:00.401Z,64.94
2023-02-22T18:18:27.941Z,65.61
2023-02-22T18:20:59.723Z,66.18
2023-02-22T18:23:47.574Z,66.49
2023-02-22T18:26:16.872Z,66.61
2023-02-22T18:28:44.110Z,66.75
2023-02-22T18:31:17.327Z,67.42
2023-02-22T18:33:47.542Z,66.64
2023-02-22T18:36:16.698Z,67.48
2023-02-22T18:38:45.010Z,67.19
2023-02-22T18:41:17.492Z,68.70
2023-02-22T18:43:46.559Z,69.38
2023-02-22T18:46:16.651Z,69.23
2023-02-22T18:48:44.390Z,68.81
2023-02-22T18:51:13.651Z,68.53
2023-02-22T18:53:46.951Z,68.64
2023-02-22T18:56:34.321Z,68.00
2023-02-22T18:59:03.777Z,67.69
2023-02-22T19:01:38.842Z,68.35
2023-02-22T19:04:12.839Z,68.28
2023-02-22T19:06:40.115Z,69.22
2023-02-22T19:09:09.854Z,69.58
2023-02-22T19:11:37.420Z,69.35
2023-02-22T19:14:06.114Z,68.16
2023-02-22T19:16:33.425Z,69.30
2023-02-22T19:19:00.490Z,68.74
2023-02-22T19:21:29.202Z,69.31
2023-02-22T19:23:56.634Z,69.14
2023-02-22T19:26:25.802Z,69.37
2023-02-22T19:28:54.828Z,68.85
2023-02-22T19:31:28.466Z,69.64
2023-02-22T19:34:00.767Z,69.74
2023-02-22T19:36:28.050Z,69.95
2023-02-22T19:38:54.995Z,70.38
2023-02-22T19:41:23.178Z,70.79
2023-02-22T19:43:52.682Z,70.72
2023-02-22T19:46:21.559Z,70.44
2023-02-22T19:48:49.534Z,70.97
2023-02-22T19:51:17.852Z,71.42
2023-02-22T19:53:46.064Z,71.42
2023-02-22T19:56:16.316Z,70.38
2023-02-22T19:58:45.040Z,70.51
2023-02-22T20:01:33.448Z,71.83
2023-02-22T20:04:06.219Z,71.56
2023-02-22T20:06:37.521Z,70.48
2023-02-22T20:09:04.710Z,70.28
2023-02-22T20:11:33.990Z,70.14
2023-02-22T20:14:01.273Z,70.41
2023-02-22T20:16:29.173Z,71.13
2023-02-22T20:18:56.243Z,71.23
2023-02-22T20:21:43.860Z,70.69
2023-02-22T20:24:20.747Z,71.40
2023-02-22T20:26:48.644Z,72.03
2023-02-22T20:29:16.292Z,72.16
2023-02-22T20:31:44.341Z,72.26
2023-02-22T20:34:12.042Z,72.25
2023-02-22T20:36:40.724Z,72.72
2023-02-22T20:39:13.607Z,72.39
2023-02-22T20:41:42.786Z,72.47
2023-02-22T20:44:13.667Z,72.50
2023-02-22T20:46:41.221Z,72.70
2023-02-22T20:49:11.398Z,72.63
2023-02-22T20:51:42.065Z,73.45
2023-02-22T20:54:12.440Z,73.04
2023-02-22T20:56:44.366Z,73.04
2023-02-22T20:59:14.595Z,73.49
2023-02-22T21:01:43.218Z,73.30
2023-02-22T21:04:11.258Z,72.88
2023-02-22T21:06:39.096Z,72.69
2023-02-22T21:09:08.886Z,73.34
2023-02-22T21:11:36.299Z,73.28
2023-02-22T21:14:03.651Z,73.62
2023-02-22T21:16:34.148Z,73.75
2023-02-22T21:19:03.421Z,74.17
2023-02-22T21:21:31.938Z,74.27
2023-02-22T21:24:03.128Z,74.27
2023-02-22T21:26:32.194Z,74.67
2023-02-22T21:29:01.728Z,74.67
2023-02-22T21:31:28.722Z,74.61
2023-02-22T21:33:57.825Z,73.41
2023-02-22T21:36:25.791Z,74.93
2023-02-22T21:38:55.953Z,74.54
2023-02-22T21:41:27.923Z,74.57
2023-02-22T21:43:57.304Z,75.72
2023-02-22T21:46:25.764Z,75.34
2023-02-22T21:48:52.808Z,75.50
2023-02-22T21:51:23.464Z,75.21
2023-02-22T21:53:52.682Z,75.55
2023-02-22T21:56:30.053Z,75.07
2023-02-22T21:59:05.074Z,75.22
2023-02-22T22:01:38.603Z,77.77
2023-02-22T22:04:05.556Z,76.20
2023-02-22T22:06:34.805Z,76.96
2023-02-22T22:09:04.844Z,76.57
2023-02-22T22:11:31.771Z,76.75
2023-02-22T22:14:00.026Z,76.85
2023-02-22T22:16:30.234Z,76.87
2023-02-22T22:18:57.925Z,77.55
2023-02-22T22:21:25.380Z,77.65
2023-02-22T22:23:57.512Z,77.96
2023-02-22T22:26:25.965Z,77.58
2023-02-22T22:28:56.060Z,77.30
2023-02-22T22:31:24.961Z,77.13
2023-02-22T22:33:52.430Z,77.28
2023-02-22T22:36:21.658Z,76.20
2023-02-22T22:38:49.584Z,76.96
2023-02-22T22:41:19.568Z,77.31
2023-02-22T22:43:47.197Z,77.02
2023-02-22T22:46:17.493Z,77.14
2023-02-22T22:48:47.396Z,76.17
2023-02-22T22:51:18.679Z,75.97
2023-02-22T22:53:47.988Z,77.32
2023-02-22T22:56:26.478Z,76.34
2023-02-22T22:58:59.057Z,75.82
2023-02-22T23:01:33.153Z,76.78
2023-02-22T23:04:03.275Z,77.65
2023-02-22T23:06:50.739Z,76.72
2023-02-22T23:09:21.997Z,76.97
2023-02-22T23:11:53.612Z,77.45
2023-02-22T23:14:26.541Z,77.62
2023-02-22T23:17:03.444Z,77.48
2023-02-22T23:19:31.416Z,77.22
2023-02-22T23:21:59.297Z,78.18
2023-02-22T23:24:29.302Z,78.85
2023-02-22T23:27:00.305Z,78.61
2023-02-22T23:29:29.990Z,79.41
2023-02-22T23:31:58.827Z,80.25
2023-02-22T23:34:26.476Z,79.47
2023-02-22T23:36:54.407Z,78.87
2023-02-22T23:39:22.683Z,77.49
2023-02-22T23:41:54.263Z,78.52
2023-02-22T23:44:22.136Z,79.21
2023-02-22T23:47:09.791Z,79.26
2023-02-22T23:49:38.470Z,79.10
2023-02-22T23:52:06.736Z,78.46
2023-02-22T23:54:36.737Z,79.54
2023-02-22T23:57:04.988Z,78.13
2023-02-22T23:59:33.691Z,78.41
